createdAt,value
2024-01-15T00:00:12.794Z,78.23
2024-01-15T00:02:39.564Z,79.33
2024-01-15T00:05:08.080Z,78.99
2024-01-15T00:07:34.622Z,79.61
2024-01-15T00:10:01.198Z,78.61
2024-01-15T00:12:28.224Z,78.89
2024-01-15T00:14:55.531Z,78.48
2024-01-15T00:17:22.165Z,78.01
2024-01-15T00:19:49.173Z,77.84
2024-01-15T00:22:15.761Z,77.39
2024-01-15T00:24:43.035Z,77.42
2024-01-15T00:27:09.642Z,77.39
2024-01-15T00:29:36.203Z,77.08
2024-01-15T00:32:02.877Z,76.37
2024-01-15T00:34:29.662Z,76.49
2024-01-15T00:36:56.251Z,76.30
2024-01-15T00:39:23.084Z,76.19
2024-01-15T00:41:49.737Z,76.26
2024-01-15T00:44:16.258Z,75.78
2024-01-15T00:46:47.146Z,76.31
2024-01-15T00:49:17.545Z,76.04
2024-01-15T00:51:44.361Z,75.78
2024-01-15T00:54:11.118Z,75.67
2024-01-15T00:56:38.132Z,75.47
2024-01-15T00:59:04.777Z,75.72
2024-01-15T01:01:31.336Z,75.93
2024-01-15T01:03:58.540Z,76.08
2024-01-15T01:06:26.007Z,75.91
2024-01-15T01:08:54.632Z,76.23
2024-01-15T01:11:21.394Z,75.85
2024-01-15T01:13:47.846Z,76.63
2024-01-15T01:16:14.377Z,77.38
2024-01-15T01:18:41.086Z,78.44
2024-01-15T01:21:07.783Z,78.49
2024-01-15T01:23:34.316Z,79.37
2024-01-15T01:26:01.672Z,80.30
2024-01-15T01:28:29.115Z,79.79
2024-01-15T01:30:55.639Z,80.39
2024-01-15T01:33:22.274Z,80.72
2024-01-15T01:35:48.935Z,80.87
2024-01-15T01:38:15.393Z,80.20
2024-01-15T01:40:44.280Z,80.37
2024-01-15T01:43:11.462Z,80.54
2024-01-15T01:45:38.089Z,79.99
2024-01-15T01:48:05.474Z,79.65
2024-01-15T01:50:33.159Z,79.21
2024-01-15T01:53:01.145Z,79.13
2024-01-15T01:55:30.472Z,80.00
2024-01-15T01:57:57.447Z,79.33
2024-01-15T02:00:24.144Z,78.84
2024-01-15T02:02:50.758Z,78.90
2024-01-15T02:05:21.493Z,78.82
2024-01-15T02:07:48.353Z,78.83
2024-01-15T02:10:15.200Z,78.36
2024-01-15T02:12:41.831Z,78.72
2024-01-15T02:15:08.703Z,79.04
2024-01-15T02:17:35.385Z,78.25
2024-01-15T02:20:02.389Z,78.90
2024-01-15T02:22:28.845Z,79.11
2024-01-15T02:24:55.352Z,78.07
2024-01-15T02:27:22.014Z,78.49
2024-01-15T02:29:49.682Z,78.47
2024-01-15T02:32:16.257Z,78.23
2024-01-15T02:34:42.991Z,78.85
2024-01-15T02:37:09.596Z,78.73
2024-01-15T02:39:36.065Z,78.68
2024-01-15T02:42:02.811Z,78.64
2024-01-15T02:44:29.332Z,77.58
2024-01-15T02:46:55.817Z,77.58
2024-01-15T02:49:22.366Z,77.86
2024-01-15T02:51:49.163Z,77.95
2024-01-15T02:54:15.653Z,77.21
2024-01-15T02:56:42.166Z,77.75
2024-01-15T02:59:08.895Z,77.40
2024-01-15T03:01:35.372Z,76.85
2024-01-15T03:04:04.732Z,77.32
2024-01-15T03:06:31.468Z,76.94
2024-01-15T03:08:57.962Z,76.93
2024-01-15T03:11:24.504Z,76.41
2024-01-15T03:13:50.984Z,75.92
2024-01-15T03:16:17.448Z,76.89
2024-01-15T03:18:46.587Z,75.61
2024-01-15T03:21:13.226Z,76.31
2024-01-15T03:23:39.729Z,75.42
2024-01-15T03:26:06.302Z,75.94
2024-01-15T03:28:32.892Z,75.30
2024-01-15T03:30:59.682Z,74.72
2024-01-15T03:33:26.623Z,75.63
2024-01-15T03:35:53.167Z,74.93
2024-01-15T03:38:19.837Z,74.77
2024-01-15T03:40:46.438Z,74.48
2024-01-15T03:43:13.038Z,74.18
2024-01-15T03:45:39.767Z,74.67
2024-01-15T03:48:06.661Z,74.73
2024-01-15T03:50:33.225Z,74.71
2024-01-15T03:52:59.729Z,73.96
2024-01-15T03:55:26.261Z,75.19
2024-01-15T03:57:52.766Z,74.76
2024-01-15T04:00:19.771Z,74.74
2024-01-15T04:02:46.279Z,74.03
2024-01-15T04:05:12.813Z,74.26
2024-01-15T04:07:39.290Z,73.75
2024-01-15T04:10:06.159Z,73.35
2024-01-15T04:12:32.826Z,73.46
2024-01-15T04:14:59.497Z,73.71
2024-01-15T04:17:26.047Z,73.03
2024-01-15T04:19:52.633Z,72.73
2024-01-15T04:22:19.276Z,72.79
2024-01-15T04:24:45.894Z,72.78
2024-01-15T04:27:12.577Z,71.58
2024-01-15T04:29:41.650Z,71.74
2024-01-15T04:32:08.513Z,71.95
2024-01-15T04:34:35.171Z,71.46
2024-01-15T04:37:01.737Z,71.58
2024-01-15T04:39:28.419Z,71.30
2024-01-15T04:41:55.034Z,71.81
2024-01-15T04:44:21.643Z,72.08
2024-01-15T04:46:48.117Z,71.54
2024-01-15T04:49:14.759Z,71.58
2024-01-15T04:51:41.376Z,71.22
2024-01-15T04:54:10.096Z,71.84
2024-01-15T04:56:36.696Z,71.18
2024-01-15T04:59:03.309Z,71.87
2024-01-15T05:01:33.886Z,72.24
2024-01-15T05:04:00.861Z,72.31
2024-01-15T05:06:27.585Z,72.63
2024-01-15T05:08:54.154Z,72.00
2024-01-15T05:11:20.850Z,72.54
2024-01-15T05:13:47.412Z,72.10
2024-01-15T05:16:13.925Z,71.81
2024-01-15T05:18:40.545Z,72.50
2024-01-15T05:21:07.241Z,71.95
2024-01-15T05:23:33.772Z,72.23
2024-01-15T05:26:00.302Z,72.20
2024-01-15T05:28:26.945Z,71.86
2024-01-15T05:30:53.968Z,72.12
2024-01-15T05:33:20.650Z,72.52
2024-01-15T05:35:47.481Z,72.34
2024-01-15T05:38:14.016Z,72.45
2024-01-15T05:40:40.431Z,72.85
2024-01-15T05:43:07.089Z,73.42
2024-01-15T05:45:35.940Z,73.89
2024-01-15T05:48:02.698Z,74.63
2024-01-15T05:50:29.341Z,74.51
2024-01-15T05:52:55.824Z,74.16
2024-01-15T05:55:22.333Z,74.57
2024-01-15T05:57:49.074Z,74.20
2024-01-15T06:00:16.205Z,73.22
2024-01-15T06:02:42.877Z,73.14
2024-01-15T06:05:09.368Z,73.15
2024-01-15T06:07:37.305Z,72.91
2024-01-15T06:10:05.765Z,72.18
2024-01-15T06:12:33.463Z,72.53
2024-01-15T06:15:01.072Z,73.64
2024-01-15T06:17:27.675Z,73.15
2024-01-15T06:19:54.369Z,72.89
2024-01-15T06:22:21.263Z,73.18
2024-01-15T06:24:47.817Z,73.77
2024-01-15T06:27:14.392Z,74.30
2024-01-15T06:29:50.394Z,75.70
2024-01-15T06:32:20.240Z,75.99
2024-01-15T06:34:46.758Z,75.56
2024-01-15T06:37:13.425Z,74.72
2024-01-15T06:39:40.009Z,74.09
2024-01-15T06:42:06.653Z,73.82
2024-01-15T06:44:33.311Z,74.04
2024-01-15T06:47:03.518Z,73.53
2024-01-15T06:49:30.998Z,73.41
2024-01-15T06:51:58.031Z,73.00
2024-01-15T06:54:24.936Z,73.32
2024-01-15T06:56:51.707Z,73.25
2024-01-15T06:59:20.214Z,73.11
2024-01-15T07:01:47.542Z,73.09
2024-01-15T07:04:14.546Z,72.64
2024-01-15T07:06:41.325Z,72.12
2024-01-15T07:09:09.132Z,72.55
2024-01-15T07:11:35.644Z,71.80
2024-01-15T07:14:02.086Z,72.78
2024-01-15T07:16:36.620Z,72.54
2024-01-15T07:19:05.165Z,72.40
2024-01-15T07:21:31.838Z,72.04
2024-01-15T07:23:58.382Z,72.54
2024-01-15T07:26:24.913Z,72.47
2024-01-15T07:28:51.849Z,72.62
2024-01-15T07:31:22.665Z,72.66
2024-01-15T07:33:49.411Z,72.63
2024-01-15T07:36:16.130Z,73.17
2024-01-15T07:38:42.920Z,72.73
2024-01-15T07:41:09.513Z,72.49
2024-01-15T07:43:36.278Z,73.32
2024-01-15T07:46:06.079Z,73.49
2024-01-15T07:48:32.745Z,73.04
2024-01-15T07:50:59.349Z,73.03
2024-01-15T07:53:25.884Z,72.80
2024-01-15T07:55:52.386Z,73.13
2024-01-15T07:58:18.969Z,73.10
2024-01-15T08:00:45.977Z,73.72
2024-01-15T08:03:14.008Z,74.62
2024-01-15T08:05:40.959Z,73.45
2024-01-15T08:08:07.728Z,73.56
2024-01-15T08:10:36.957Z,72.75
2024-01-15T08:13:03.545Z,73.23
2024-01-15T08:15:31.722Z,73.80
2024-01-15T08:17:58.837Z,73.25
2024-01-15T08:20:25.754Z,73.05
2024-01-15T08:22:52.959Z,72.50
2024-01-15T08:25:19.603Z,72.34
2024-01-15T08:27:46.240Z,72.44
2024-01-15T08:30:13.449Z,72.73
2024-01-15T08:32:43.395Z,72.42
2024-01-15T08:35:10.552Z,72.66
2024-01-15T08:37:37.405Z,72.63
2024-01-15T08:40:04.903Z,72.64
2024-01-15T08:42:31.465Z,72.88
2024-01-15T08:44:58.172Z,72.92
2024-01-15T08:47:24.761Z,73.63
2024-01-15T08:49:51.378Z,73.53
2024-01-15T08:52:17.882Z,73.65
2024-01-15T08:54:44.417Z,73.85
2024-01-15T08:57:12.786Z,73.67
2024-01-15T08:59:39.918Z,73.73
2024-01-15T09:02:06.708Z,74.01
2024-01-15T09:04:33.287Z,74.12
2024-01-15T09:06:59.951Z,73.96
2024-01-15T09:09:26.447Z,74.47
2024-01-15T09:11:53.087Z,74.57
2024-01-15T09:14:30.578Z,74.64
2024-01-15T09:17:04.551Z,73.75
2024-01-15T09:19:31.189Z,74.08
2024-01-15T09:21:58.714Z,73.72
2024-01-15T09:24:27.935Z,73.64
2024-01-15T09:26:55.590Z,73.38
2024-01-15T09:29:22.188Z,73.52
2024-01-15T09:31:48.785Z,72.95
2024-01-15T09:34:16.122Z,73.62
2024-01-15T09:36:43.622Z,72.88
2024-01-15T09:39:12.218Z,73.25
2024-01-15T09:41:39.560Z,72.65
2024-01-15T09:44:06.723Z,72.90
2024-01-15T09:46:33.979Z,72.99
2024-01-15T09:49:01.872Z,73.05
2024-01-15T09:51:32.677Z,73.36
2024-01-15T09:53:59.371Z,73.22
2024-01-15T09:56:25.858Z,73.52
2024-01-15T09:58:55.996Z,73.60
2024-01-15T10:01:23.941Z,73.35
2024-01-15T10:03:51.738Z,73.13
2024-01-15T10:06:22.472Z,73.00
2024-01-15T10:08:52.401Z,72.81
2024-01-15T10:11:19.172Z,73.31
2024-01-15T10:13:50.492Z,72.49
2024-01-15T10:16:17.737Z,72.95
2024-01-15T10:18:44.333Z,72.98
2024-01-15T10:21:11.004Z,72.62
2024-01-15T10:23:37.690Z,72.52
2024-01-15T10:26:04.742Z,72.83
2024-01-15T10:28:32.766Z,72.22
2024-01-15T10:31:00.693Z,71.97
2024-01-15T10:33:28.140Z,72.04
2024-01-15T10:35:58.761Z,71.79
2024-01-15T10:38:25.999Z,71.90
2024-01-15T10:40:57.350Z,71.57
2024-01-15T10:43:28.148Z,71.58
2024-01-15T10:45:56.361Z,71.93
2024-01-15T10:48:23.050Z,71.17
2024-01-15T10:50:49.792Z,71.19
2024-01-15T10:53:17.761Z,72.00
2024-01-15T10:55:44.967Z,72.47
2024-01-15T10:58:11.639Z,73.10
2024-01-15T11:00:39.564Z,75.75
2024-01-15T11:03:07.371Z,76.53
2024-01-15T11:05:44.630Z,77.00
2024-01-15T11:08:12.180Z,77.03
2024-01-15T11:10:43.335Z,77.33
2024-01-15T11:13:30.818Z,76.11
2024-01-15T11:16:12.924Z,76.42
2024-01-15T11:18:42.309Z,76.93
2024-01-15T11:21:18.158Z,77.30
2024-01-15T11:23:52.470Z,77.80
2024-01-15T11:26:56.248Z,78.11
2024-01-15T11:29:30.724Z,78.07
2024-01-15T11:32:08.940Z,78.22
2024-01-15T11:35:03.474Z,78.21
2024-01-15T11:37:53.884Z,78.27
2024-01-15T11:40:33.845Z,77.91
2024-01-15T11:43:00.816Z,77.57
2024-01-15T11:45:28.292Z,77.73
2024-01-15T11:48:12.643Z,78.26
2024-01-15T11:50:44.104Z,77.85
2024-01-15T11:53:37.536Z,77.25
2024-01-15T11:56:07.389Z,77.15
2024-01-15T11:58:35.000Z,77.29
2024-01-15T12:01:01.805Z,77.56
2024-01-15T12:03:28.483Z,77.33
2024-01-15T12:05:55.219Z,77.49
2024-01-15T12:08:23.547Z,77.45
2024-01-15T12:10:50.236Z,76.71
2024-01-15T12:13:18.821Z,77.28
2024-01-15T12:15:47.455Z,77.22
2024-01-15T12:18:16.483Z,77.12
2024-01-15T12:20:44.802Z,77.42
2024-01-15T12:23:12.168Z,78.67
2024-01-15T12:25:39.386Z,79.60
2024-01-15T12:28:06.818Z,80.48
2024-01-15T12:30:35.736Z,81.36
2024-01-15T12:33:06.259Z,81.22
2024-01-15T12:35:35.929Z,81.42
2024-01-15T12:38:06.335Z,81.81
2024-01-15T12:40:36.197Z,81.76
2024-01-15T12:43:04.167Z,81.41
2024-01-15T12:45:31.898Z,81.79
2024-01-15T12:47:59.022Z,81.20
2024-01-15T12:50:27.275Z,80.91
2024-01-15T12:52:54.100Z,80.06
2024-01-15T12:55:20.803Z,80.39
2024-01-15T12:57:47.573Z,80.27
2024-01-15T13:00:16.231Z,79.89
2024-01-15T13:02:44.444Z,80.27
2024-01-15T13:05:13.232Z,78.97
2024-01-15T13:07:41.161Z,79.56
2024-01-15T13:10:10.002Z,78.59
2024-01-15T13:12:36.796Z,79.08
2024-01-15T13:15:04.813Z,79.60
2024-01-15T13:17:32.077Z,79.75
2024-01-15T13:19:58.927Z,79.68
2024-01-15T13:22:31.043Z,79.84
2024-01-15T13:24:57.692Z,80.13
2024-01-15T13:27:24.570Z,79.86
2024-01-15T13:29:51.192Z,79.96
2024-01-15T13:32:26.989Z,79.89
2024-01-15T13:34:53.761Z,80.25
2024-01-15T13:37:20.408Z,80.09
2024-01-15T13:39:46.959Z,80.23
2024-01-15T13:42:13.681Z,80.96
2024-01-15T13:44:41.458Z,80.47
2024-01-15T13:47:08.081Z,80.96
2024-01-15T13:49:35.442Z,81.00
2024-01-15T13:52:04.867Z,80.66
2024-01-15T13:54:42.051Z,80.66
2024-01-15T13:57:15.811Z,80.04
2024-01-15T13:59:42.419Z,79.52
2024-01-15T14:02:09.020Z,79.39
2024-01-15T14:04:35.636Z,79.36
2024-01-15T14:07:02.304Z,79.45
2024-01-15T14:09:28.827Z,79.58
2024-01-15T14:11:55.700Z,79.69
2024-01-15T14:14:22.184Z,79.40
2024-01-15T14:16:48.720Z,79.37
2024-01-15T14:19:16.532Z,79.71
2024-01-15T14:21:43.361Z,78.93
2024-01-15T14:24:09.904Z,79.11
2024-01-15T14:26:36.397Z,79.21
2024-01-15T14:29:02.910Z,79.32
2024-01-15T14:31:30.075Z,78.95
2024-01-15T14:33:56.838Z,79.04
2024-01-15T14:36:23.648Z,79.11
2024-01-15T14:38:50.199Z,79.89
2024-01-15T14:41:18.042Z,80.63
2024-01-15T14:43:46.072Z,81.28
2024-01-15T14:46:12.633Z,80.81
2024-01-15T14:48:39.347Z,81.27
2024-01-15T14:51:06.472Z,81.36
2024-01-15T14:53:33.141Z,82.07
2024-01-15T14:55:59.924Z,81.47
2024-01-15T14:58:26.595Z,81.92
2024-01-15T15:00:53.440Z,81.73
2024-01-15T15:03:20.084Z,81.60
2024-01-15T15:05:46.934Z,81.18
2024-01-15T15:08:13.899Z,81.38
2024-01-15T15:10:41.552Z,80.53
2024-01-15T15:13:08.264Z,80.76
2024-01-15T15:15:35.434Z,80.49
2024-01-15T15:18:02.772Z,80.22
2024-01-15T15:20:29.515Z,80.55
2024-01-15T15:22:57.043Z,80.54
2024-01-15T15:25:24.171Z,81.28
2024-01-15T15:27:50.727Z,82.35
2024-01-15T15:30:17.333Z,82.43
2024-01-15T15:32:44.262Z,82.88
2024-01-15T15:35:11.595Z,82.41
2024-01-15T15:37:38.520Z,82.42
2024-01-15T15:40:09.613Z,82.14
2024-01-15T15:42:36.968Z,81.62
2024-01-15T15:45:04.786Z,81.82
2024-01-15T15:47:31.639Z,81.10
2024-01-15T15:49:58.539Z,81.04
2024-01-15T15:52:25.426Z,81.53
2024-01-15T15:54:52.230Z,81.69
2024-01-15T15:57:18.952Z,81.69
2024-01-15T15:59:45.622Z,80.77
2024-01-15T16:02:12.143Z,81.23
2024-01-15T16:04:38.960Z,80.86
2024-01-15T16:07:10.966Z,80.69
2024-01-15T16:09:38.098Z,80.43
2024-01-15T16:12:05.140Z,80.43
2024-01-15T16:14:31.667Z,80.05
2024-01-15T16:23:13.629Z,80.18
2024-01-15T16:23:26.934Z,79.97
2024-01-15T16:23:42.332Z,79.56
2024-01-15T16:25:19.776Z,79.45
2024-01-15T16:27:46.708Z,78.97
2024-01-15T16:30:24.730Z,78.61
2024-01-15T16:32:56.631Z,79.08
2024-01-15T16:35:23.863Z,79.30
2024-01-15T16:37:50.962Z,80.00
2024-01-15T16:40:17.768Z,79.63
2024-01-15T16:42:46.138Z,79.22
2024-01-15T16:45:12.752Z,79.30
2024-01-15T16:47:39.723Z,78.84
2024-01-15T16:50:06.672Z,79.94
2024-01-15T16:52:33.147Z,79.78
2024-01-15T16:55:00.241Z,79.55
2024-01-15T16:57:26.819Z,79.59
2024-01-15T16:59:53.431Z,80.10
2024-01-15T17:02:20.219Z,80.34
2024-01-15T17:04:47.021Z,80.08
2024-01-15T17:07:14.856Z,80.35
2024-01-15T17:09:41.602Z,81.04
2024-01-15T17:12:08.462Z,81.83
2024-01-15T17:14:35.409Z,82.60
2024-01-15T17:17:02.472Z,83.07
2024-01-15T17:19:29.270Z,83.64
2024-01-15T17:21:55.974Z,83.48
2024-01-15T17:24:22.548Z,84.21
2024-01-15T17:26:50.052Z,84.46
2024-01-15T17:29:17.548Z,84.85
2024-01-15T17:31:44.126Z,84.21
2024-01-15T17:34:11.783Z,84.87
2024-01-15T17:36:38.686Z,84.63
2024-01-15T17:39:07.232Z,84.54
2024-01-15T17:41:36.528Z,84.11
2024-01-15T17:44:03.439Z,83.63
2024-01-15T17:46:30.420Z,84.10
2024-01-15T17:49:03.756Z,84.10
2024-01-15T17:51:34.159Z,83.97
2024-01-15T17:54:01.773Z,84.61
2024-01-15T17:56:28.669Z,85.07
2024-01-15T17:58:56.814Z,85.73
2024-01-15T18:01:23.499Z,85.09
2024-01-15T18:03:51.834Z,85.11
2024-01-15T18:06:18.516Z,85.36
2024-01-15T18:08:45.287Z,85.26
2024-01-15T18:11:19.220Z,84.45
2024-01-15T18:13:46.717Z,84.44
2024-01-15T18:16:13.573Z,83.67
2024-01-15T18:18:40.257Z,84.30
2024-01-15T18:21:07.817Z,84.23
2024-01-15T18:23:34.965Z,84.48
2024-01-15T18:26:01.829Z,83.78
2024-01-15T18:28:28.490Z,84.39
2024-01-15T18:30:55.090Z,83.68
2024-01-15T18:33:24.329Z,84.29
2024-01-15T18:35:52.436Z,83.76
2024-01-15T18:38:19.190Z,83.61
2024-01-15T18:40:45.708Z,83.28
2024-01-15T18:43:12.141Z,84.05
2024-01-15T18:45:38.963Z,83.21
2024-01-15T18:48:07.580Z,83.78
2024-01-15T18:50:34.374Z,83.29
2024-01-15T18:53:00.945Z,83.62
2024-01-15T18:55:27.497Z,83.00
2024-01-15T18:57:59.149Z,83.11
2024-01-15T19:00:27.257Z,83.65
2024-01-15T19:02:58.912Z,83.26
2024-01-15T19:05:25.972Z,83.05
2024-01-15T19:07:52.542Z,82.82
2024-01-15T19:10:19.084Z,82.83
2024-01-15T19:12:46.226Z,83.17
2024-01-15T19:15:12.858Z,83.84
2024-01-15T19:17:39.921Z,83.41
2024-01-15T19:20:08.452Z,83.17
2024-01-15T19:22:34.970Z,83.44
2024-01-15T19:25:02.014Z,82.51
2024-01-15T19:27:28.551Z,83.11
2024-01-15T19:29:55.049Z,82.85
2024-01-15T19:32:22.013Z,83.00
2024-01-15T19:34:49.171Z,82.99
2024-01-15T19:37:15.772Z,83.05
2024-01-15T19:39:42.231Z,82.30
2024-01-15T19:42:08.821Z,82.34
2024-01-15T19:44:35.893Z,82.70
2024-01-15T19:47:02.674Z,81.87
2024-01-15T19:49:29.679Z,81.35
2024-01-15T19:51:56.199Z,82.34
2024-01-15T19:54:22.890Z,82.36
2024-01-15T19:56:49.641Z,80.97
2024-01-15T19:59:16.934Z,81.44
2024-01-15T20:01:44.754Z,81.66
2024-01-15T20:04:11.255Z,81.46
2024-01-15T20:06:37.933Z,81.98
2024-01-15T20:09:04.532Z,80.65
2024-01-15T20:11:32.189Z,80.63
2024-01-15T20:13:58.717Z,79.35
2024-01-15T20:16:25.317Z,78.72
2024-01-15T20:18:52.107Z,78.29
2024-01-15T20:21:19.437Z,79.49
2024-01-15T20:23:54.668Z,79.88
2024-01-15T20:26:25.714Z,79.58
2024-01-15T20:28:52.437Z,79.94
2024-01-15T20:31:19.085Z,79.11
2024-01-15T20:33:45.774Z,79.78
2024-01-15T20:36:14.210Z,79.86
2024-01-15T20:38:41.030Z,80.29
2024-01-15T20:41:08.307Z,78.92
2024-01-15T20:43:37.685Z,78.55
2024-01-15T20:46:04.315Z,78.51
2024-01-15T20:48:31.409Z,78.24
2024-01-15T20:50:59.115Z,78.86
2024-01-15T20:53:26.375Z,78.99
2024-01-15T20:55:52.960Z,77.37
2024-01-15T20:58:23.839Z,77.89
2024-01-15T21:00:51.080Z,77.75
2024-01-15T21:03:19.566Z,78.07
2024-01-15T21:05:46.538Z,77.22
2024-01-15T21:08:13.615Z,76.74
2024-01-15T21:10:41.398Z,75.38
2024-01-15T21:13:08.335Z,76.64
2024-01-15T21:15:35.375Z,77.04
2024-01-15T21:18:03.713Z,76.43
2024-01-15T21:20:31.164Z,76.33
2024-01-15T21:22:57.700Z,76.38
2024-01-15T21:25:24.192Z,76.31
2024-01-15T21:27:50.807Z,76.36
2024-01-15T21:30:17.290Z,77.08
2024-01-15T21:32:44.069Z,77.33
2024-01-15T21:35:13.280Z,77.74
2024-01-15T21:37:41.533Z,78.00
2024-01-15T21:40:10.825Z,78.28
2024-01-15T21:42:38.368Z,78.24
2024-01-15T21:45:08.142Z,77.76
2024-01-15T21:47:36.849Z,78.09
2024-01-15T21:50:09.936Z,78.32
2024-01-15T21:52:36.725Z,78.52
2024-01-15T21:55:03.704Z,78.46
2024-01-15T21:57:32.417Z,79.19
2024-01-15T22:00:01.514Z,79.16
2024-01-15T22:02:30.623Z,78.40
2024-01-15T22:04:57.684Z,78.86
2024-01-15T22:07:24.119Z,78.70
2024-01-15T22:09:50.634Z,79.39
2024-01-15T22:12:17.147Z,80.08
2024-01-15T22:14:43.797Z,79.22
2024-01-15T22:17:10.377Z,79.83
2024-01-15T22:19:37.036Z,80.26
2024-01-15T22:22:04.012Z,79.84
2024-01-15T22:24:30.553Z,79.58
2024-01-15T22:26:57.092Z,80.11
2024-01-15T22:29:24.362Z,79.85
2024-01-15T22:31:50.859Z,79.58
2024-01-15T22:34:18.781Z,78.99
2024-01-15T22:36:45.418Z,79.66
2024-01-15T22:39:12.206Z,79.78
2024-01-15T22:41:38.786Z,79.85
2024-01-15T22:44:05.608Z,80.07
2024-01-15T22:46:32.189Z,80.24
2024-01-15T22:48:58.720Z,80.40
2024-01-15T22:51:25.518Z,80.58
2024-01-15T22:53:54.773Z,80.79
2024-01-15T22:56:22.003Z,80.58
2024-01-15T22:58:48.937Z,80.63
2024-01-15T23:01:15.562Z,80.21
2024-01-15T23:03:42.099Z,80.61
2024-01-15T23:06:19.742Z,80.74
2024-01-15T23:08:46.838Z,81.02
2024-01-15T23:11:13.734Z,80.35
2024-01-15T23:13:43.648Z,79.65
2024-01-15T23:16:14.376Z,80.18
2024-01-15T23:18:42.387Z,79.86
2024-01-15T23:21:09.896Z,81.38
2024-01-15T23:23:37.075Z,80.97
2024-01-15T23:26:04.048Z,81.43
2024-01-15T23:28:32.226Z,82.80
2024-01-15T23:30:58.804Z,81.92
2024-01-15T23:33:25.353Z,82.66
2024-01-15T23:35:54.373Z,82.78
2024-01-15T23:38:23.246Z,82.95
2024-01-15T23:40:49.725Z,84.08
2024-01-15T23:43:16.316Z,83.73
2024-01-15T23:45:42.872Z,83.50
2024-01-15T23:48:09.470Z,84.42
2024-01-15T23:50:36.030Z,84.22
2024-01-15T23:53:02.549Z,84.55
2024-01-15T23:55:29.158Z,83.38
2024-01-15T23:57:56.222Z,83.71
